This is the latest recevied weather packets stored in our database for station/object WX9WTF. If no packets are shown the sender has not sent any weather packets the latest 10 day(s).
| Time | Temp. | Humidity | Pressure | Rain* | Wind** | Luminosity | Snow |
|---|---|---|---|---|---|---|---|
| 1777816145 | 15.56° C | 57% | 1016.1 hPa | 0 mm | - | 361 W/m² | - |
| 1777815843 | 15.56° C | 57% | 1016.1 hPa | 0 mm | - | 340 W/m² | - |
| 1777815540 | 15.56° C | 56% | 1016.1 hPa | 0 mm | - | 322 W/m² | - |
| 1777815237 | 15° C | 58% | 1016 hPa | 0 mm | - | 306 W/m² | - |
| 1777814933 | 14.44° C | 60% | 1015.9 hPa | 0 mm | - | 287 W/m² | - |
| 1777814630 | 14.44° C | 58% | 1016 hPa | 0 mm | - | 288 W/m² | - |
| 1777814327 | 14.44° C | 58% | 1015.6 hPa | 0 mm | - | 251 W/m² | - |
| 1777814023 | 13.89° C | 58% | 1015.8 hPa | 0 mm | - | 235 W/m² | - |
| 1777813721 | 13.89° C | 58% | 1016.1 hPa | 0 mm | - | 220 W/m² | - |
| 1777813418 | 13.33° C | 61% | 1016 hPa | 0 mm | - | 203 W/m² | - |
| 1777813115 | 12.78° C | 63% | 1016.1 hPa | 0 mm | - | 187 W/m² | - |
| 1777812814 | 12.78° C | 61% | 1016.3 hPa | 0 mm | - | 176 W/m² | - |
| 1777812510 | 11.67° C | 63% | 1016.2 hPa | 0 mm | - | 162 W/m² | - |
| 1777812208 | 11.67° C | 64% | 1016.1 hPa | 0 mm | - | 67 W/m² | - |
| 1777811906 | 11.67° C | 63% | 1016.2 hPa | 0 mm | - | 80 W/m² | - |
| 1777811604 | 11.11° C | 67% | 1016.2 hPa | 0 mm | - | 93 W/m² | - |
| 1777811299 | 11.11° C | 64% | 1016.1 hPa | 0 mm | - | 78 W/m² | - |
| 1777810997 | 10.56° C | 65% | 1016.1 hPa | 0 mm | - | 89 W/m² | - |
| 1777810694 | 10° C | 66% | 1016.2 hPa | 0 mm | - | 78 W/m² | - |
| 1777810390 | 10° C | 68% | 1016.3 hPa | 0 mm | - | 47 W/m² | - |
| 1777810086 | 8.89° C | 72% | 1016.3 hPa | 0 mm | - | 51 W/m² | - |
| 1777809784 | 8.33° C | 75% | 1016.4 hPa | 0 mm | - | 45 W/m² | - |
| 1777809481 | 7.78° C | 78% | 1016.3 hPa | 0 mm | - | 33 W/m² | - |
| 1777809179 | 7.22° C | 80% | 1016.3 hPa | 0 mm | - | 29 W/m² | - |
| 1777808876 | 6.67° C | 83% | 1016.3 hPa | 0 mm | - | 24 W/m² | - |
* Rain latest hour (hover to see other rain measurements)
** Current wind speed in m/s (hover to see current wind gust speed)